createdAt,value
2018-06-25T00:01:57.366Z,2.40
2018-06-25T00:04:28.670Z,2.10
2018-06-25T00:07:00.221Z,1.90
2018-06-25T00:09:30.495Z,2.00
2018-06-25T00:12:01.482Z,2.20
2018-06-25T00:14:32.313Z,2.27
2018-06-25T00:17:03.079Z,2.07
2018-06-25T00:19:33.798Z,2.23
2018-06-25T00:22:03.093Z,2.00
2018-06-25T00:24:33.518Z,1.80
2018-06-25T00:27:02.852Z,2.40
2018-06-25T00:29:33.137Z,2.33
2018-06-25T00:32:03.808Z,2.23
2018-06-25T00:34:33.986Z,2.17
2018-06-25T00:37:05.230Z,2.03
2018-06-25T00:39:34.871Z,2.17
2018-06-25T00:42:05.339Z,2.20
2018-06-25T00:44:35.847Z,2.03
2018-06-25T00:47:10.836Z,1.97
2018-06-25T00:49:41.474Z,2.20
2018-06-25T00:52:11.148Z,2.03
2018-06-25T00:54:40.842Z,2.07
2018-06-25T00:57:10.470Z,2.33
2018-06-25T00:59:51.155Z,2.00
2018-06-25T01:02:21.351Z,2.30
2018-06-25T01:04:50.890Z,2.10
2018-06-25T01:07:20.705Z,1.93
2018-06-25T01:09:50.407Z,2.13
2018-06-25T01:12:20.359Z,2.17
2018-06-25T01:14:51.372Z,2.30
2018-06-25T01:17:25.862Z,2.10
2018-06-25T01:19:56.714Z,2.20
2018-06-25T01:22:26.761Z,2.30
2018-06-25T01:24:57.870Z,2.03
2018-06-25T01:27:30.605Z,2.20
2018-06-25T01:30:02.674Z,1.90
2018-06-25T01:32:32.512Z,2.30
2018-06-25T01:35:02.996Z,1.97
2018-06-25T01:37:32.616Z,2.10
2018-06-25T01:40:03.777Z,1.90
2018-06-25T01:42:34.068Z,2.00
2018-06-25T01:45:05.648Z,2.10
2018-06-25T01:47:34.950Z,2.23
2018-06-25T01:50:07.963Z,2.00
2018-06-25T01:52:44.660Z,1.80
2018-06-25T01:55:15.982Z,2.10
2018-06-25T01:57:48.554Z,2.10
2018-06-25T02:00:18.915Z,2.20
2018-06-25T02:02:48.792Z,1.97
2018-06-25T02:05:19.207Z,2.00
2018-06-25T02:07:48.510Z,1.80
2018-06-25T02:10:18.248Z,1.87
2018-06-25T02:12:47.785Z,2.10
2018-06-25T02:15:17.638Z,1.70
2018-06-25T02:17:48.534Z,1.83
2018-06-25T02:20:18.460Z,2.10
2018-06-25T02:22:48.379Z,2.00
2018-06-25T02:25:17.950Z,1.80
2018-06-25T02:27:47.486Z,2.07
2018-06-25T02:30:17.298Z,1.80
2018-06-25T02:32:47.638Z,2.00
2018-06-25T02:35:19.034Z,1.83
2018-06-25T02:37:48.559Z,1.90
2018-06-25T02:40:18.156Z,2.00
2018-06-25T02:42:47.804Z,1.93
2018-06-25T02:45:19.262Z,1.67
2018-06-25T02:47:49.991Z,1.80
2018-06-25T02:50:21.075Z,2.10
2018-06-25T02:52:51.757Z,1.43
2018-06-25T02:55:22.525Z,1.90
2018-06-25T02:57:52.456Z,1.93
2018-06-25T03:00:22.683Z,1.60
2018-06-25T03:02:53.583Z,1.77
2018-06-25T03:05:23.417Z,1.80
2018-06-25T03:07:53.632Z,2.20
2018-06-25T03:10:23.643Z,1.70
2018-06-25T03:12:54.830Z,1.60
2018-06-25T03:15:25.967Z,1.73
2018-06-25T03:17:55.977Z,1.90
2018-06-25T03:20:26.415Z,2.20
2018-06-25T03:22:58.225Z,1.80
2018-06-25T03:25:27.827Z,1.70
2018-06-25T03:27:58.028Z,1.67
2018-06-25T03:30:27.612Z,1.70
2018-06-25T03:32:58.579Z,1.93
2018-06-25T03:35:27.848Z,2.00
2018-06-25T03:37:58.147Z,1.80
2018-06-25T03:40:28.823Z,1.70
2018-06-25T03:42:59.943Z,1.63
2018-06-25T03:45:29.740Z,1.90
2018-06-25T03:47:59.810Z,1.97
2018-06-25T03:50:30.596Z,1.77
2018-06-25T03:53:01.626Z,1.90
2018-06-25T03:55:32.366Z,1.50
2018-06-25T03:58:03.410Z,1.83
2018-06-25T04:00:39.569Z,1.70
2018-06-25T04:03:09.182Z,1.50
2018-06-25T04:05:40.803Z,2.30
2018-06-25T04:08:15.091Z,1.50
2018-06-25T04:10:44.790Z,1.67
2018-06-25T04:13:15.088Z,1.70
2018-06-25T04:15:46.506Z,1.60
2018-06-25T04:18:17.239Z,1.70
2018-06-25T04:20:47.428Z,1.80
2018-06-25T04:23:18.906Z,1.30
2018-06-25T04:25:49.212Z,1.40
2018-06-25T04:28:19.398Z,1.60
2018-06-25T04:30:50.023Z,1.33
2018-06-25T04:33:19.962Z,1.60
2018-06-25T04:35:49.896Z,1.30
2018-06-25T04:38:19.438Z,1.63
2018-06-25T04:40:49.282Z,1.60
2018-06-25T04:43:19.585Z,1.53
2018-06-25T04:45:50.525Z,1.30
2018-06-25T04:48:20.501Z,1.50
2018-06-25T04:50:50.303Z,1.67
2018-06-25T04:53:21.445Z,1.60
2018-06-25T04:55:51.753Z,1.40
2018-06-25T04:58:22.370Z,1.70
2018-06-25T05:00:52.132Z,1.40
2018-06-25T05:03:23.449Z,1.70
2018-06-25T05:05:55.366Z,1.43
2018-06-25T05:08:27.183Z,1.30
2018-06-25T05:10:57.262Z,1.40
2018-06-25T05:13:28.294Z,1.40
2018-06-25T05:15:59.386Z,1.70
2018-06-25T05:18:30.082Z,1.87
2018-06-25T05:21:01.164Z,1.47
2018-06-25T05:23:32.348Z,1.30
2018-06-25T05:26:02.695Z,1.70
2018-06-25T05:28:31.959Z,1.50
2018-06-25T05:31:01.235Z,1.83
2018-06-25T05:33:32.061Z,1.47
2018-06-25T05:36:03.114Z,1.83
2018-06-25T05:38:32.676Z,1.50
2018-06-25T05:41:02.019Z,1.40
2018-06-25T05:43:32.351Z,1.70
2018-06-25T05:46:02.101Z,1.60
2018-06-25T05:48:32.828Z,1.63
2018-06-25T05:51:03.014Z,1.50
2018-06-25T05:53:32.993Z,1.77
2018-06-25T05:56:02.302Z,1.73
2018-06-25T05:58:33.248Z,1.47
2018-06-25T06:01:03.438Z,1.47
2018-06-25T06:03:32.795Z,1.67
2018-06-25T06:06:03.218Z,1.50
2018-06-25T06:08:33.126Z,1.80
2018-06-25T06:11:03.109Z,1.80
2018-06-25T06:13:33.694Z,1.87
2018-06-25T06:16:03.919Z,1.50
2018-06-25T06:18:34.329Z,2.00
2018-06-25T06:21:04.856Z,2.03
2018-06-25T06:23:35.390Z,1.80
2018-06-25T06:26:05.244Z,1.80
2018-06-25T06:28:36.112Z,1.93
2018-06-25T06:31:05.939Z,1.63
2018-06-25T06:33:40.299Z,1.90
2018-06-25T06:36:12.388Z,1.53
2018-06-25T06:38:43.562Z,1.80
2018-06-25T06:41:14.271Z,1.83
2018-06-25T06:43:45.415Z,1.73
2018-06-25T06:46:15.446Z,1.90
2018-06-25T06:48:45.288Z,1.80
2018-06-25T06:51:15.535Z,1.90
2018-06-25T06:53:44.826Z,2.03
2018-06-25T06:56:14.587Z,1.60
2018-06-25T06:58:44.746Z,1.83
2018-06-25T07:01:14.486Z,1.77
2018-06-25T07:03:44.331Z,1.70
2018-06-25T07:06:15.122Z,1.47
2018-06-25T07:08:45.179Z,1.47
2018-06-25T07:11:15.643Z,1.50
2018-06-25T07:13:45.791Z,1.50
2018-06-25T07:16:17.327Z,1.60
2018-06-25T07:18:50.881Z,1.67
2018-06-25T07:21:20.828Z,1.73
2018-06-25T07:23:50.948Z,1.60
2018-06-25T07:26:22.652Z,1.60
2018-06-25T07:28:52.042Z,1.60
2018-06-25T07:31:22.156Z,1.53
2018-06-25T07:33:52.835Z,1.43
2018-06-25T07:36:22.150Z,1.80
2018-06-25T07:38:53.003Z,1.57
2018-06-25T07:41:23.518Z,1.67
2018-06-25T07:43:54.246Z,1.70
2018-06-25T07:46:25.044Z,1.63
2018-06-25T07:48:55.111Z,1.37
2018-06-25T07:51:25.429Z,1.47
2018-06-25T07:53:56.085Z,1.50
2018-06-25T07:56:25.362Z,1.60
2018-06-25T07:58:54.954Z,1.40
2018-06-25T08:01:25.142Z,1.57
2018-06-25T08:03:55.019Z,1.30
2018-06-25T08:06:25.610Z,1.67
2018-06-25T08:08:55.559Z,1.50
2018-06-25T08:11:26.818Z,1.63
2018-06-25T08:13:57.114Z,1.80
2018-06-25T08:16:26.416Z,1.60
2018-06-25T08:18:56.837Z,1.40
2018-06-25T08:21:28.718Z,1.53
2018-06-25T08:24:00.738Z,1.43
2018-06-25T08:26:31.518Z,1.60
2018-06-25T08:29:02.986Z,1.53
2018-06-25T08:31:33.173Z,1.57
2018-06-25T08:34:03.994Z,1.50
2018-06-25T08:36:34.163Z,1.63
2018-06-25T08:39:07.786Z,1.60
2018-06-25T08:41:38.647Z,1.73
2018-06-25T08:44:08.745Z,1.90
2018-06-25T08:46:39.386Z,1.77
2018-06-25T08:49:10.588Z,1.80
2018-06-25T08:51:41.809Z,2.00
2018-06-25T08:54:12.591Z,2.83
2018-06-25T08:56:43.045Z,2.83
2018-06-25T08:59:13.060Z,3.17
2018-06-25T09:01:44.725Z,2.03
2018-06-25T09:04:17.348Z,3.03
2018-06-25T09:06:47.894Z,2.87
2018-06-25T09:09:18.039Z,2.40
2018-06-25T09:15:17.052Z,2.60
2018-06-25T09:17:46.294Z,2.93
2018-06-25T09:23:35.572Z,2.30
2018-06-25T09:29:14.930Z,3.43
2018-06-25T09:31:45.561Z,3.37
2018-06-25T09:34:21.277Z,3.27
2018-06-25T09:36:52.974Z,3.70
2018-06-25T09:39:23.802Z,3.03
2018-06-25T09:41:54.719Z,2.80
2018-06-25T09:44:25.598Z,2.30
2018-06-25T09:46:56.290Z,2.60
2018-06-25T09:49:28.646Z,2.43
2018-06-25T09:51:59.293Z,2.90
2018-06-25T09:54:32.011Z,2.83
2018-06-25T09:57:02.539Z,2.10
2018-06-25T09:59:33.797Z,2.50
2018-06-25T10:02:03.450Z,2.53
2018-06-25T10:04:34.431Z,2.60
2018-06-25T10:07:05.691Z,2.67
2018-06-25T10:09:35.413Z,2.80
2018-06-25T10:12:05.786Z,2.60
2018-06-25T10:14:35.853Z,2.50
2018-06-25T10:17:05.998Z,2.47
2018-06-25T10:19:37.968Z,2.63
2018-06-25T10:22:07.302Z,2.40
2018-06-25T10:24:38.078Z,2.93
2018-06-25T10:27:07.576Z,2.70
2018-06-25T10:29:38.407Z,2.37
2018-06-25T10:32:09.261Z,2.93
2018-06-25T10:34:41.204Z,2.40
2018-06-25T10:37:11.442Z,2.33
2018-06-25T10:40:02.395Z,2.30
2018-06-25T10:42:32.693Z,2.40
2018-06-25T10:45:03.086Z,2.40
2018-06-25T10:47:32.938Z,2.23
2018-06-25T10:50:03.222Z,2.40
2018-06-25T10:52:32.572Z,2.10
2018-06-25T10:55:04.698Z,2.57
2018-06-25T10:57:35.103Z,1.97
2018-06-25T11:00:06.080Z,2.23
2018-06-25T11:02:36.074Z,2.40
2018-06-25T11:05:06.247Z,2.13
2018-06-25T11:07:41.899Z,2.03
2018-06-25T11:10:17.456Z,2.00
2018-06-25T11:12:47.148Z,2.23
2018-06-25T11:15:17.606Z,2.00
2018-06-25T11:17:47.806Z,2.00
2018-06-25T11:20:17.848Z,2.13
2018-06-25T11:22:48.672Z,2.13
2018-06-25T11:25:18.669Z,1.90
2018-06-25T11:27:48.885Z,1.70
2018-06-25T11:30:21.563Z,1.60
2018-06-25T11:32:51.355Z,1.90
2018-06-25T11:35:21.414Z,1.70
2018-06-25T11:37:52.020Z,1.43
2018-06-25T11:40:37.730Z,1.67
2018-06-25T11:43:08.005Z,1.90
2018-06-25T11:45:37.305Z,1.90
2018-06-25T11:48:06.583Z,1.67
2018-06-25T11:50:36.126Z,2.50
2018-06-25T11:53:05.846Z,2.30
2018-06-25T11:55:36.339Z,2.10
2018-06-25T11:58:06.621Z,2.13
2018-06-25T12:00:36.417Z,1.70
2018-06-25T12:03:08.461Z,2.23
2018-06-25T12:05:38.794Z,2.80
2018-06-25T12:08:09.722Z,3.83
2018-06-25T12:10:40.496Z,3.23
2018-06-25T12:13:14.146Z,2.57
2018-06-25T12:15:43.426Z,2.63
2018-06-25T12:18:13.919Z,2.30
2018-06-25T12:20:45.402Z,2.27
2018-06-25T12:23:15.162Z,2.20
2018-06-25T12:25:44.606Z,2.13
2018-06-25T12:28:14.327Z,2.23
2018-06-25T12:30:45.378Z,2.37
2018-06-25T12:33:16.482Z,1.90
2018-06-25T12:35:47.587Z,2.10
2018-06-25T12:38:17.734Z,2.10
2018-06-25T12:40:48.173Z,2.23
2018-06-25T12:43:17.853Z,2.03
2018-06-25T12:45:48.151Z,2.53
2018-06-25T12:48:19.605Z,2.10
2018-06-25T12:50:49.604Z,1.97
2018-06-25T12:53:19.587Z,1.90
2018-06-25T12:55:48.846Z,2.00
2018-06-25T12:58:19.133Z,1.80
2018-06-25T13:00:48.735Z,1.70
2018-06-25T13:03:18.605Z,2.03
2018-06-25T13:05:48.858Z,2.07
2018-06-25T13:08:19.018Z,1.87
2018-06-25T13:10:48.789Z,2.53
2018-06-25T13:13:18.759Z,1.70
2018-06-25T13:15:48.796Z,2.00
2018-06-25T13:18:19.261Z,2.00
2018-06-25T13:20:51.287Z,1.87
2018-06-25T13:23:21.704Z,1.90
2018-06-25T13:25:52.125Z,1.70
2018-06-25T13:28:21.981Z,1.67
2018-06-25T13:30:51.490Z,1.70
2018-06-25T13:33:21.290Z,1.80
2018-06-25T13:35:50.883Z,2.10
2018-06-25T13:38:20.659Z,1.60
2018-06-25T13:40:50.662Z,2.13
2018-06-25T13:43:20.750Z,1.90
2018-06-25T13:45:50.595Z,1.87
2018-06-25T13:48:20.977Z,1.87
2018-06-25T13:50:50.936Z,2.43
2018-06-25T13:53:20.585Z,1.70
2018-06-25T13:55:50.066Z,1.83
2018-06-25T13:58:20.961Z,1.90
2018-06-25T14:00:51.127Z,2.03
2018-06-25T14:03:21.546Z,1.50
2018-06-25T14:05:51.731Z,1.70
2018-06-25T14:08:21.562Z,1.60
2018-06-25T14:10:52.166Z,1.40
2018-06-25T14:13:21.897Z,1.53
2018-06-25T14:15:51.425Z,1.40
2018-06-25T14:18:21.614Z,1.47
2018-06-25T14:20:52.460Z,1.50
2018-06-25T14:23:23.798Z,1.60
2018-06-25T14:28:40.772Z,1.63
2018-06-25T14:31:17.909Z,1.53
2018-06-25T14:34:23.809Z,1.60
2018-06-25T14:36:53.659Z,1.47
2018-06-25T14:39:23.620Z,1.30
2018-06-25T14:41:52.886Z,1.37
2018-06-25T14:44:23.734Z,1.33
2018-06-25T14:46:53.403Z,1.30
2018-06-25T14:49:22.697Z,1.43
2018-06-25T14:51:52.443Z,1.20
2018-06-25T14:54:21.987Z,1.60
2018-06-25T14:56:51.638Z,1.20
2018-06-25T14:59:20.970Z,1.40
2018-06-25T15:01:51.559Z,1.20
2018-06-25T15:04:21.766Z,1.70
2018-06-25T15:06:51.610Z,1.23
2018-06-25T15:09:22.311Z,1.20
2018-06-25T15:11:53.520Z,1.20
2018-06-25T15:14:23.229Z,1.53
2018-06-25T15:16:52.823Z,1.00
2018-06-25T15:19:23.001Z,1.10
2018-06-25T15:21:54.006Z,1.40
2018-06-25T15:24:24.777Z,1.30
2018-06-25T15:26:57.774Z,1.37
2018-06-25T15:29:28.027Z,1.17
2018-06-25T15:31:59.028Z,1.30
2018-06-25T15:34:28.719Z,1.47
2018-06-25T15:36:59.046Z,1.20
2018-06-25T15:39:28.349Z,1.40
2018-06-25T15:41:58.038Z,1.20
2018-06-25T15:44:28.187Z,1.10
2018-06-25T15:46:57.958Z,1.50
2018-06-25T15:49:27.498Z,1.10
2018-06-25T15:51:57.632Z,1.20
2018-06-25T15:54:27.181Z,1.10
2018-06-25T15:56:56.887Z,1.03
2018-06-25T15:59:27.159Z,1.10
2018-06-25T16:01:56.416Z,1.50
2018-06-25T16:04:26.285Z,1.60
2018-06-25T16:06:56.424Z,2.13
2018-06-25T16:09:26.499Z,1.67
2018-06-25T16:11:55.879Z,1.37
2018-06-25T16:14:25.552Z,1.90
2018-06-25T16:16:57.322Z,2.63
2018-06-25T16:19:29.015Z,8.00
2018-06-25T16:22:02.299Z,28.00
2018-06-25T16:24:32.899Z,36.83
2018-06-25T16:27:02.947Z,25.07
2018-06-25T16:29:33.365Z,52.67
2018-06-25T16:32:03.539Z,29.57
2018-06-25T16:34:34.543Z,21.80
2018-06-25T16:37:05.434Z,19.50
2018-06-25T16:39:34.766Z,30.10
2018-06-25T16:42:05.051Z,30.17
2018-06-25T16:44:35.069Z,15.93
2018-06-25T16:47:06.095Z,12.23
2018-06-25T16:49:36.581Z,11.83
2018-06-25T16:52:08.143Z,9.57
2018-06-25T16:54:38.998Z,9.27
2018-06-25T16:57:08.817Z,7.27
2018-06-25T16:59:38.156Z,6.33
2018-06-25T17:02:08.106Z,5.50
2018-06-25T17:04:37.787Z,5.87
2018-06-25T17:07:08.090Z,5.07
2018-06-25T17:09:38.262Z,4.47
2018-06-25T17:12:08.787Z,5.30
2018-06-25T17:14:38.732Z,3.67
2018-06-25T17:17:08.971Z,5.30
2018-06-25T17:19:40.910Z,5.20
2018-06-25T17:22:11.357Z,3.90
2018-06-25T17:24:41.330Z,4.73
2018-06-25T17:27:11.201Z,3.40
2018-06-25T17:29:41.330Z,2.60
2018-06-25T17:32:10.901Z,3.27
2018-06-25T17:34:40.910Z,3.40
2018-06-25T17:37:12.282Z,3.03
2018-06-25T17:39:42.213Z,2.50
2018-06-25T17:42:12.422Z,2.63
2018-06-25T17:44:43.773Z,2.47
2018-06-25T17:47:14.001Z,2.53
2018-06-25T17:49:43.497Z,3.37
2018-06-25T17:52:13.158Z,2.30
2018-06-25T17:54:46.587Z,2.77
2018-06-25T17:57:17.308Z,2.40
2018-06-25T17:59:47.427Z,2.43
2018-06-25T18:02:16.928Z,2.03
2018-06-25T18:04:46.919Z,1.77
2018-06-25T18:07:16.530Z,1.70
2018-06-25T18:09:46.142Z,1.77
2018-06-25T18:12:16.669Z,1.80
2018-06-25T18:14:47.052Z,1.80
2018-06-25T18:17:17.070Z,1.57
2018-06-25T18:19:48.622Z,1.50
2018-06-25T18:22:18.919Z,1.80
2018-06-25T18:24:49.286Z,2.10
2018-06-25T18:27:19.855Z,1.63
2018-06-25T18:29:50.262Z,1.63
2018-06-25T18:32:20.770Z,1.33
2018-06-25T18:34:52.221Z,1.70
2018-06-25T18:37:21.621Z,1.47
2018-06-25T18:39:53.018Z,1.40
2018-06-25T18:42:26.477Z,1.60
2018-06-25T18:44:56.276Z,1.60
2018-06-25T18:47:26.380Z,1.50
2018-06-25T18:49:59.702Z,1.20
2018-06-25T18:52:28.960Z,1.30
2018-06-25T18:54:58.339Z,1.20
2018-06-25T18:57:28.442Z,1.30
2018-06-25T18:59:59.011Z,1.17
2018-06-25T19:02:29.546Z,1.37
2018-06-25T19:05:00.785Z,1.40
2018-06-25T19:07:30.832Z,1.30
2018-06-25T19:10:01.506Z,1.10
2018-06-25T19:12:31.738Z,1.33
2018-06-25T19:15:00.999Z,1.40
2018-06-25T19:17:30.787Z,1.23
2018-06-25T19:20:01.095Z,1.20
2018-06-25T19:22:31.166Z,1.17
2018-06-25T19:25:01.303Z,1.20
2018-06-25T19:27:32.406Z,1.30
2018-06-25T19:30:02.371Z,1.00
2018-06-25T19:32:32.046Z,1.00
2018-06-25T19:35:07.731Z,1.27
2018-06-25T19:37:37.847Z,1.17
2018-06-25T19:40:07.987Z,1.10
2018-06-25T19:42:37.974Z,1.10
2018-06-25T19:45:08.269Z,1.20
2018-06-25T19:47:39.307Z,1.57
2018-06-25T19:50:10.407Z,1.83
2018-06-25T19:52:41.670Z,1.63
2018-06-25T19:55:12.427Z,1.53
2018-06-25T19:57:42.703Z,1.40
2018-06-25T20:00:12.167Z,1.10
2018-06-25T20:02:41.452Z,1.20
2018-06-25T20:05:10.718Z,1.30
2018-06-25T20:07:40.247Z,1.40
2018-06-25T20:10:11.355Z,1.27
2018-06-25T20:12:41.663Z,1.40
2018-06-25T20:15:12.625Z,1.27
2018-06-25T20:17:42.633Z,1.20
2018-06-25T20:20:16.039Z,1.40
2018-06-25T20:22:45.666Z,1.23
2018-06-25T20:25:14.976Z,1.30
2018-06-25T20:27:45.054Z,1.20
2018-06-25T20:30:14.301Z,1.33
2018-06-25T20:32:44.004Z,1.37
2018-06-25T20:35:13.280Z,1.33
2018-06-25T20:37:44.602Z,1.40
2018-06-25T20:40:16.446Z,1.20
2018-06-25T20:42:47.493Z,1.13
2018-06-25T20:45:16.762Z,1.40
2018-06-25T20:47:46.301Z,1.40
2018-06-25T20:50:18.151Z,1.20
2018-06-25T20:52:47.902Z,1.30
2018-06-25T20:55:17.153Z,1.20
2018-06-25T20:57:49.610Z,1.50
2018-06-25T21:00:23.205Z,1.20
2018-06-25T21:02:53.981Z,1.30
2018-06-25T21:05:25.153Z,1.30
2018-06-25T21:07:56.357Z,1.10
2018-06-25T21:10:29.913Z,0.90
2018-06-25T21:12:59.642Z,1.27
2018-06-25T21:15:29.714Z,1.33
2018-06-25T21:17:59.206Z,1.20
2018-06-25T21:20:28.496Z,1.17
2018-06-25T21:22:59.944Z,1.17
2018-06-25T21:25:30.387Z,1.17
2018-06-25T21:28:01.031Z,1.60
2018-06-25T21:30:32.023Z,1.53
2018-06-25T21:33:01.848Z,1.47
2018-06-25T21:35:42.651Z,1.70
2018-06-25T21:38:12.178Z,1.23
2018-06-25T21:40:43.220Z,1.60
2018-06-25T21:43:12.625Z,1.50
2018-06-25T21:45:42.389Z,1.90
2018-06-25T21:48:13.676Z,1.30
2018-06-25T21:50:45.226Z,1.50
2018-06-25T21:53:15.419Z,1.47
2018-06-25T21:55:46.172Z,1.70
2018-06-25T21:58:16.038Z,1.50
2018-06-25T22:00:53.411Z,1.90
2018-06-25T22:03:23.116Z,1.50
2018-06-25T22:05:54.307Z,1.60
2018-06-25T22:08:26.235Z,1.60
2018-06-25T22:10:56.059Z,1.40
2018-06-25T22:13:27.176Z,1.50
2018-06-25T22:15:59.671Z,1.70
2018-06-25T22:18:29.507Z,1.70
2018-06-25T22:20:59.165Z,1.90
2018-06-25T22:23:28.639Z,1.80
2018-06-25T22:25:58.461Z,1.60
2018-06-25T22:28:28.805Z,2.00
2018-06-25T22:31:10.826Z,1.90
2018-06-25T22:33:41.218Z,1.80
2018-06-25T22:36:11.083Z,1.70
2018-06-25T22:38:40.733Z,1.80
2018-06-25T22:41:10.983Z,1.73
2018-06-25T22:43:41.043Z,1.83
2018-06-25T22:46:11.497Z,1.93
2018-06-25T22:48:41.561Z,1.97
2018-06-25T22:51:11.692Z,1.90
2018-06-25T22:53:41.936Z,1.90
2018-06-25T22:56:11.997Z,1.90
2018-06-25T22:58:43.913Z,2.20
2018-06-25T23:01:15.661Z,1.87
2018-06-25T23:03:45.511Z,2.30
2018-06-25T23:06:14.881Z,2.20
2018-06-25T23:08:50.750Z,2.13
2018-06-25T23:11:20.748Z,2.20
2018-06-25T23:13:50.141Z,2.23
2018-06-25T23:16:20.044Z,2.20
2018-06-25T23:18:50.837Z,1.80
2018-06-25T23:21:23.508Z,2.10
2018-06-25T23:23:52.939Z,1.97
2018-06-25T23:26:23.297Z,2.20
2018-06-25T23:28:54.296Z,2.20
2018-06-25T23:31:28.511Z,2.13
2018-06-25T23:33:59.572Z,2.20
2018-06-25T23:36:31.096Z,2.33
2018-06-25T23:39:01.529Z,2.23
2018-06-25T23:41:32.546Z,2.43
2018-06-25T23:44:02.626Z,2.60
2018-06-25T23:46:32.766Z,2.07
2018-06-25T23:49:02.160Z,2.30
2018-06-25T23:51:32.334Z,2.30
2018-06-25T23:54:02.266Z,2.30
2018-06-25T23:56:32.950Z,2.30
2018-06-25T23:59:02.841Z,2.50
